createdAt,value
2022-11-28T00:03:08.847Z,99439.75
2022-11-28T00:08:12.079Z,99438.53
2022-11-28T00:13:15.094Z,99434.06
2022-11-28T00:18:19.359Z,99418.47
2022-11-28T00:23:22.306Z,99409.63
2022-11-28T00:28:25.588Z,99408.81
2022-11-28T00:33:29.863Z,99399.31
2022-11-28T00:38:32.974Z,99403.00
2022-11-28T00:43:36.057Z,99392.28
2022-11-28T00:48:40.393Z,99391.97
2022-11-28T00:53:44.943Z,99377.59
2022-11-28T00:58:49.680Z,99386.81
2022-11-28T01:03:55.948Z,99378.81
2022-11-28T01:09:00.298Z,99371.91
2022-11-28T01:14:03.497Z,99364.84
2022-11-28T01:19:08.529Z,99361.47
2022-11-28T01:24:11.821Z,99357.81
2022-11-28T01:29:14.983Z,99355.09
2022-11-28T01:34:19.293Z,99345.72
2022-11-28T01:39:22.228Z,99338.56
2022-11-28T01:45:02.428Z,99336.09
2022-11-28T01:50:08.780Z,99337.47
2022-11-28T01:55:13.698Z,99338.41
2022-11-28T02:00:20.265Z,99329.56
2022-11-28T02:05:24.642Z,99310.03
2022-11-28T02:10:30.287Z,99312.22
2022-11-28T02:15:49.913Z,99306.25
2022-11-28T02:21:16.819Z,99293.09
2022-11-28T02:26:42.104Z,99289.16
2022-11-28T02:32:14.852Z,99285.63
2022-11-28T02:37:27.356Z,99277.22
2022-11-28T02:42:37.022Z,99272.63
2022-11-28T02:47:46.197Z,99268.25
2022-11-28T02:52:53.179Z,99262.97
2022-11-28T02:57:56.476Z,99252.66
2022-11-28T03:03:24.442Z,99257.44
2022-11-28T03:08:38.516Z,99253.91
2022-11-28T03:13:50.221Z,99238.47
2022-11-28T03:19:02.206Z,99236.59
2022-11-28T03:24:11.832Z,99219.22
2022-11-28T03:29:22.022Z,99225.75
2022-11-28T03:34:32.978Z,99221.34
2022-11-28T03:39:40.355Z,99212.53
2022-11-28T03:44:49.880Z,99211.06
2022-11-28T03:49:56.299Z,99214.38
2022-11-28T03:55:04.808Z,99211.78
2022-11-28T04:00:10.615Z,99217.09
2022-11-28T04:05:23.769Z,99208.25
2022-11-28T04:10:33.964Z,99207.53
2022-11-28T04:15:42.714Z,99198.19
2022-11-28T04:20:53.770Z,99199.06
2022-11-28T04:26:01.726Z,99194.50
2022-11-28T04:31:07.057Z,99201.03
2022-11-28T04:36:13.857Z,99199.41
2022-11-28T04:41:21.480Z,99196.88
2022-11-28T04:46:28.713Z,99179.72
2022-11-28T04:51:40.644Z,99187.34
2022-11-28T04:56:48.697Z,99174.88
2022-11-28T05:01:51.764Z,99172.50
2022-11-28T05:07:04.321Z,99176.78
2022-11-28T05:12:08.018Z,99162.44
2022-11-28T05:17:13.465Z,99166.50
2022-11-28T05:22:17.718Z,99160.88
2022-11-28T05:27:20.633Z,99153.78
2022-11-28T05:32:23.493Z,99153.44
2022-11-28T05:37:27.883Z,99155.94
2022-11-28T05:42:34.616Z,99154.94
2022-11-28T05:47:37.549Z,99139.75
2022-11-28T05:52:41.775Z,99132.09
2022-11-28T05:57:44.664Z,99136.66
2022-11-28T06:02:47.612Z,99132.28
2022-11-28T06:07:51.998Z,99123.78
2022-11-28T06:12:54.951Z,99119.44
2022-11-28T06:17:57.891Z,99112.47
2022-11-28T06:23:02.172Z,99121.56
2022-11-28T06:28:05.328Z,99111.84
2022-11-28T06:33:08.246Z,99122.19
2022-11-28T06:38:14.331Z,99124.16
2022-11-28T06:43:17.629Z,99106.31
2022-11-28T06:48:20.949Z,99110.88
2022-11-28T06:53:31.248Z,99105.09
2022-11-28T06:58:34.677Z,99099.56
2022-11-28T07:03:37.660Z,99093.63
2022-11-28T07:08:42.927Z,99099.94
2022-11-28T07:13:46.660Z,99083.41
2022-11-28T07:18:50.221Z,99074.66
2022-11-28T07:23:54.584Z,99065.63
2022-11-28T07:28:58.349Z,99071.59
2022-11-28T07:34:03.454Z,99071.44
2022-11-28T07:39:09.431Z,99066.91
2022-11-28T07:44:13.091Z,99069.19
2022-11-28T07:49:16.348Z,99062.19
2022-11-28T07:54:20.675Z,99039.06
2022-11-28T07:59:23.672Z,99030.78
2022-11-28T08:04:26.676Z,99049.41
2022-11-28T08:09:32.612Z,99047.94
2022-11-28T08:14:35.580Z,99042.28
2022-11-28T08:19:38.556Z,99048.09
2022-11-28T08:24:43.061Z,99038.69
2022-11-28T08:29:50.475Z,99027.97
2022-11-28T08:34:56.045Z,99039.28
2022-11-28T08:40:00.352Z,99029.28
2022-11-28T08:45:03.344Z,99040.59
2022-11-28T08:50:07.858Z,99038.56
2022-11-28T08:55:12.273Z,99046.94
2022-11-28T09:00:16.629Z,99050.38
2022-11-28T09:05:19.581Z,99073.72
2022-11-28T09:10:24.897Z,99067.59
2022-11-28T09:15:27.824Z,99061.88
2022-11-28T09:20:30.748Z,99075.03
2022-11-28T09:25:37.176Z,99057.63
2022-11-28T09:30:40.162Z,99055.97
2022-11-28T09:35:43.225Z,99054.75
2022-11-28T09:40:47.777Z,99054.41
2022-11-28T09:45:53.907Z,99039.00
2022-11-28T09:51:01.754Z,99027.72
2022-11-28T09:56:12.768Z,99028.16
2022-11-28T10:01:22.356Z,99027.25
2022-11-28T10:06:29.821Z,99020.59
2022-11-28T10:11:45.932Z,99010.63
2022-11-28T10:16:59.737Z,99018.72
2022-11-28T10:22:06.232Z,99021.75
2022-11-28T10:27:14.668Z,99014.03
2022-11-28T10:32:20.355Z,99010.91
2022-11-28T10:37:27.254Z,99022.91
2022-11-28T10:42:43.612Z,99010.56
2022-11-28T10:48:07.434Z,99003.97
2022-11-28T10:53:36.562Z,99008.72
2022-11-28T10:58:47.960Z,99000.22
2022-11-28T11:03:51.224Z,99003.09
2022-11-28T11:08:54.095Z,99004.38
2022-11-28T11:14:02.160Z,99001.25
2022-11-28T11:19:05.039Z,98992.75
2022-11-28T11:24:18.685Z,98980.66
2022-11-28T11:29:30.674Z,98972.25
2022-11-28T11:34:39.049Z,98987.03
2022-11-28T11:39:49.482Z,98985.31
2022-11-28T11:44:54.318Z,98997.22
2022-11-28T11:50:05.376Z,99003.88
2022-11-28T11:55:14.891Z,99000.75
2022-11-28T12:00:22.000Z,98995.38
2022-11-28T12:05:46.316Z,98986.28
2022-11-28T12:11:01.890Z,98990.50
2022-11-28T12:16:12.218Z,98988.56
2022-11-28T12:21:21.236Z,98981.72
2022-11-28T12:26:33.906Z,98977.34
2022-11-28T12:31:50.945Z,98976.78
2022-11-28T12:37:01.371Z,98978.59
2022-11-28T12:42:30.770Z,98987.38
2022-11-28T12:47:44.175Z,98991.50
2022-11-28T12:52:54.522Z,98986.84
2022-11-28T12:58:09.039Z,98992.81
2022-11-28T13:03:29.759Z,98989.13
2022-11-28T13:09:03.021Z,98974.28
2022-11-28T13:14:11.238Z,98975.50
2022-11-28T13:19:28.539Z,98977.13
2022-11-28T13:24:38.253Z,98967.66
2022-11-28T13:29:47.327Z,98972.31
2022-11-28T13:34:52.003Z,98970.53
2022-11-28T13:40:00.851Z,98963.00
2022-11-28T13:45:08.226Z,98962.91
2022-11-28T13:50:34.938Z,98967.13
2022-11-28T13:55:40.663Z,98962.56
2022-11-28T14:00:44.350Z,98960.50
2022-11-28T14:05:55.428Z,98970.81
2022-11-28T14:11:24.236Z,98977.81
2022-11-28T14:16:52.167Z,98970.25
2022-11-28T14:22:11.027Z,98968.94
2022-11-28T14:27:21.067Z,98963.63
2022-11-28T14:32:36.709Z,98970.09
2022-11-28T14:37:59.540Z,98970.19
2022-11-28T14:43:22.675Z,98969.38
2022-11-28T14:48:31.044Z,98966.84
2022-11-28T14:53:45.406Z,98976.69
2022-11-28T14:58:49.641Z,98972.41
2022-11-28T15:04:00.092Z,98973.53
2022-11-28T15:09:14.490Z,98976.94
2022-11-28T15:14:22.904Z,98979.38
2022-11-28T15:19:29.774Z,98979.03
2022-11-28T15:24:36.168Z,98971.38
2022-11-28T15:29:40.617Z,98972.00
2022-11-28T15:34:45.331Z,98974.72
2022-11-28T15:39:51.123Z,98974.41
2022-11-28T15:44:57.542Z,98975.47
2022-11-28T15:50:02.979Z,98971.91
2022-11-28T15:55:17.709Z,98974.56
2022-11-28T16:00:21.941Z,98972.47
2022-11-28T16:05:25.093Z,98977.84
2022-11-28T16:10:34.384Z,98977.22
2022-11-28T16:15:38.148Z,98972.94
2022-11-28T16:20:41.220Z,98968.59
2022-11-28T16:25:46.932Z,98971.44
2022-11-28T16:30:51.191Z,98966.69
2022-11-28T16:35:54.163Z,98968.94
2022-11-28T16:41:02.052Z,98966.84
2022-11-28T16:46:07.820Z,98966.44
2022-11-28T16:51:33.807Z,98961.56
2022-11-28T16:56:45.402Z,98964.03
2022-11-28T17:01:52.876Z,98961.97
2022-11-28T17:06:57.620Z,98973.91
2022-11-28T17:12:05.632Z,98974.69
2022-11-28T17:17:13.342Z,98967.22
2022-11-28T17:22:18.281Z,98972.94
2022-11-28T17:27:22.650Z,98962.72
2022-11-28T17:32:25.762Z,98970.13
2022-11-28T17:37:28.620Z,98962.31
2022-11-28T17:42:33.024Z,98972.72
2022-11-28T17:47:35.975Z,98973.44
2022-11-28T17:52:38.975Z,98973.69
2022-11-28T17:57:44.040Z,98970.69
2022-11-28T18:02:47.677Z,98973.34
2022-11-28T18:07:50.734Z,98965.78
2022-11-28T18:12:55.462Z,98960.66
2022-11-28T18:18:01.616Z,98968.56
2022-11-28T18:23:04.655Z,98976.09
2022-11-28T18:28:08.947Z,98969.38
2022-11-28T18:33:12.500Z,98972.59
2022-11-28T18:38:15.436Z,98985.16
2022-11-28T18:43:19.683Z,98986.00
2022-11-28T18:48:22.541Z,98976.34
2022-11-28T18:53:25.685Z,98978.84
2022-11-28T18:58:30.782Z,98953.72
2022-11-28T19:03:33.827Z,98951.03
2022-11-28T19:08:37.569Z,98951.94
2022-11-28T19:13:42.683Z,98963.50
2022-11-28T19:18:46.958Z,98966.47
2022-11-28T19:23:51.416Z,98970.75
2022-11-28T19:28:57.534Z,98978.84
2022-11-28T19:34:03.513Z,98981.44
2022-11-28T19:39:08.259Z,98979.38
2022-11-28T19:44:12.918Z,98975.88
2022-11-28T19:49:19.406Z,98968.78
2022-11-28T19:54:22.491Z,98973.69
2022-11-28T19:59:27.361Z,98974.81
2022-11-28T20:04:30.615Z,98977.09
2022-11-28T20:09:33.916Z,98977.88
2022-11-28T20:14:38.259Z,98983.78
2022-11-28T20:19:41.645Z,98976.47
2022-11-28T20:24:44.957Z,98993.56
2022-11-28T20:29:49.361Z,98990.91
2022-11-28T20:34:52.614Z,98994.03
2022-11-28T20:39:57.367Z,98994.97
2022-11-28T20:45:01.763Z,98998.53
2022-11-28T20:50:07.110Z,99004.97
2022-11-28T20:55:10.222Z,99000.41
2022-11-28T21:00:15.814Z,99003.59
2022-11-28T21:05:19.652Z,99000.19
2022-11-28T21:10:22.611Z,98992.72
2022-11-28T21:15:26.875Z,99010.56
2022-11-28T21:20:29.834Z,99010.09
2022-11-28T21:25:32.748Z,99008.38
2022-11-28T21:30:41.224Z,98995.44
2022-11-28T21:35:44.104Z,99002.00
2022-11-28T21:40:53.246Z,99000.22
2022-11-28T21:46:02.329Z,99003.44
2022-11-28T21:51:06.445Z,99003.50
2022-11-28T21:56:10.588Z,98995.44
2022-11-28T22:01:15.944Z,98997.13
2022-11-28T22:06:21.392Z,99002.59
2022-11-28T22:11:25.192Z,99006.22
2022-11-28T22:16:30.759Z,99001.75
2022-11-28T22:21:54.002Z,99001.06
2022-11-28T22:26:57.447Z,99004.97
2022-11-28T22:32:01.759Z,99002.38
2022-11-28T22:37:05.385Z,98992.94
2022-11-28T22:42:08.432Z,99003.63
2022-11-28T22:47:12.672Z,99007.56
2022-11-28T22:52:15.606Z,99011.75
2022-11-28T22:57:18.783Z,99015.66
2022-11-28T23:02:23.613Z,99007.78
2022-11-28T23:07:26.706Z,99010.88
2022-11-28T23:12:29.816Z,99011.00
2022-11-28T23:17:35.012Z,99009.72
2022-11-28T23:22:37.978Z,99016.28
2022-11-28T23:27:40.898Z,99014.69
2022-11-28T23:32:46.049Z,99012.28
2022-11-28T23:37:48.984Z,99010.19
2022-11-28T23:42:51.946Z,99014.41
2022-11-28T23:47:56.207Z,99020.59
2022-11-28T23:52:59.158Z,99022.88
2022-11-28T23:58:02.333Z,99027.03
